Time;durP1;ratioP1;P1;durP2;ratioP2;P2;SDS_P1;SDS_P2;PMS_P1;PMS_P2;Temp;Humidity;BMP_temperature;BMP_pressure;BME280_temperature;BME280_humidity;BME280_pressure;Samples;Min_cycle;Max_cycle;Signal;HPM_P1;HPM_P2
2024/01/05 00:00:39;;;;;;;;;;;3.60;99.90;;;;;;4951739;23;20512;-87
2024/01/05 00:03:05;;;;;;;;;;;3.50;99.90;;;;;;4950690;28;19922;-87
2024/01/05 00:05:31;;;;;;;;;;;3.60;99.90;;;;;;4933075;29;19941;-88
2024/01/05 00:07:56;;;;;;;;;;;3.60;99.90;;;;;;4922876;28;20559;-87
2024/01/05 00:10:22;;;;;;;;;;;3.50;99.90;;;;;;4919297;29;19919;-89
2024/01/05 00:12:54;;;;;;;;;;;3.50;99.90;;;;;;4951333;28;19914;-87
2024/01/05 00:15:19;;;;;;;;;;;3.50;99.90;;;;;;4951719;29;19927;-88
2024/01/05 00:17:45;;;;;;;;;;;3.50;99.90;;;;;;4950765;23;20029;-92
2024/01/05 00:20:11;;;;;;;;;;;3.40;99.90;;;;;;4907696;29;19915;-93
2024/01/05 00:22:36;;;;;;;;;;;3.50;99.90;;;;;;4908221;29;19923;-92
2024/01/05 00:25:03;;;;;;;;;;;3.40;99.90;;;;;;4907523;29;20058;-91
2024/01/05 00:30:59;;;;;;;;;;;3.50;99.90;;;;;;4940076;29;19951;-92
2024/01/05 00:33:25;;;;;;;;;;;3.40;99.90;;;;;;4924569;29;19922;-92
2024/01/05 00:35:51;;;;;;;;;;;3.50;99.90;;;;;;4921881;29;19915;-93
2024/01/05 00:38:16;;;;;;;;;;;3.40;99.90;;;;;;4923267;29;20275;-92
2024/01/05 00:40:42;;;;;;;;;;;3.40;99.90;;;;;;4923425;29;19914;-91
2024/01/05 00:43:08;;;;;;;;;;;3.40;99.90;;;;;;4919149;29;19922;-93
2024/01/05 00:45:33;;;;;;;;;;;3.40;99.90;;;;;;4914121;29;19922;-92
2024/01/05 00:47:59;;;;;;;;;;;3.40;99.90;;;;;;4932215;29;19915;-92
2024/01/05 00:50:24;;;;;;;;;;;3.30;99.90;;;;;;4933036;29;19927;-92
2024/01/05 00:52:50;;;;;;;;;;;3.30;99.90;;;;;;4923061;29;20005;-92
2024/01/05 00:55:15;;;;;;;;;;;3.30;99.90;;;;;;4917589;29;20001;-93
2024/01/05 00:57:41;;;;;;;;;;;3.30;99.90;;;;;;4920595;29;19914;-92
2024/01/05 01:00:08;;;;;;;;;;;3.30;99.90;;;;;;4915583;29;20371;-92
2024/01/05 01:02:34;;;;;;;;;;;3.30;99.90;;;;;;4915744;29;19915;-93
2024/01/05 01:05:00;;;;;;;;;;;3.30;99.90;;;;;;4933610;29;19923;-92
2024/01/05 01:07:25;;;;;;;;;;;3.30;99.90;;;;;;4923128;29;19958;-93
2024/01/05 01:09:51;;;;;;;;;;;3.30;99.90;;;;;;4931403;29;19926;-93
2024/01/05 01:12:16;;;;;;;;;;;3.20;99.90;;;;;;4920788;29;19954;-93
2024/01/05 01:14:42;;;;;;;;;;;3.20;99.90;;;;;;4930081;29;19914;-92
2024/01/05 01:17:08;;;;;;;;;;;3.20;99.90;;;;;;4916362;29;19918;-92
2024/01/05 01:19:33;;;;;;;;;;;3.20;99.90;;;;;;4931830;29;19915;-93
2024/01/05 01:21:59;;;;;;;;;;;3.20;99.90;;;;;;4933888;29;19911;-93
2024/01/05 01:24:25;;;;;;;;;;;3.20;99.90;;;;;;4915595;29;19919;-93
2024/01/05 01:26:50;;;;;;;;;;;3.30;99.90;;;;;;4933685;29;19914;-92
2024/01/05 01:29:16;;;;;;;;;;;3.30;99.90;;;;;;4938191;29;19918;-92
2024/01/05 01:31:41;;;;;;;;;;;3.30;99.90;;;;;;4931107;29;19922;-92
2024/01/05 01:34:07;;;;;;;;;;;3.40;99.90;;;;;;4931210;29;19915;-92
2024/01/05 01:36:33;;;;;;;;;;;3.30;99.90;;;;;;4931154;29;19917;-92
2024/01/05 01:38:58;;;;;;;;;;;3.40;99.90;;;;;;4934655;29;19962;-92
2024/01/05 01:41:24;;;;;;;;;;;3.50;99.90;;;;;;4905345;29;19922;-92
2024/01/05 01:43:50;;;;;;;;;;;3.50;99.90;;;;;;4915806;29;19914;-92
2024/01/05 01:46:16;;;;;;;;;;;3.60;99.90;;;;;;4924201;29;20005;-93
2024/01/05 01:48:44;;;;;;;;;;;3.70;99.90;;;;;;4930352;29;19962;-92
2024/01/05 01:51:10;;;;;;;;;;;3.70;99.90;;;;;;4929625;29;19911;-92
2024/01/05 01:53:36;;;;;;;;;;;3.60;99.90;;;;;;4918623;29;20271;-91
2024/01/05 01:56:02;;;;;;;;;;;3.60;99.90;;;;;;4918502;29;19922;-92
2024/01/05 01:58:28;;;;;;;;;;;3.60;99.90;;;;;;4917249;29;19915;-92
2024/01/05 02:00:54;;;;;;;;;;;3.50;99.90;;;;;;4933306;29;19922;-92
2024/01/05 02:03:19;;;;;;;;;;;3.50;99.90;;;;;;4923072;29;20323;-93
2024/01/05 02:05:46;;;;;;;;;;;3.40;99.90;;;;;;4916421;29;20336;-93
2024/01/05 02:08:11;;;;;;;;;;;3.40;99.90;;;;;;4915473;29;19922;-93
2024/01/05 02:10:38;;;;;;;;;;;3.30;99.90;;;;;;4915686;29;19915;-92
2024/01/05 02:13:03;;;;;;;;;;;3.30;99.90;;;;;;4935014;29;19915;-92
2024/01/05 02:15:29;;;;;;;;;;;3.20;99.90;;;;;;4932362;29;19921;-92
2024/01/05 02:17:55;;;;;;;;;;;3.10;99.90;;;;;;4919064;29;19982;-91
2024/01/05 02:20:20;;;;;;;;;;;3.10;99.90;;;;;;4914187;29;20275;-92
2024/01/05 02:22:47;;;;;;;;;;;3.00;99.90;;;;;;4911815;29;19927;-92
2024/01/05 02:25:13;;;;;;;;;;;2.90;99.90;;;;;;4921160;29;19899;-92
2024/01/05 02:27:39;;;;;;;;;;;2.90;99.90;;;;;;4935180;29;19922;-92
2024/01/05 02:30:05;;;;;;;;;;;2.80;99.90;;;;;;4923075;29;19922;-92
2024/01/05 02:32:31;;;;;;;;;;;2.70;99.90;;;;;;4934573;29;19915;-92
2024/01/05 02:34:56;;;;;;;;;;;2.60;99.90;;;;;;4921793;29;19984;-93
2024/01/05 02:37:22;;;;;;;;;;;2.60;99.90;;;;;;4918496;29;19915;-92
2024/01/05 02:39:48;;;;;;;;;;;2.60;99.90;;;;;;4920877;29;19946;-92
2024/01/05 02:42:13;;;;;;;;;;;2.60;99.90;;;;;;4956535;29;19915;-92
2024/01/05 02:44:39;;;;;;;;;;;2.60;99.90;;;;;;4919895;29;20283;-92
2024/01/05 02:47:05;;;;;;;;;;;2.70;99.90;;;;;;4939204;29;19918;-91
2024/01/05 02:49:31;;;;;;;;;;;2.70;99.90;;;;;;4918929;29;19926;-92
2024/01/05 02:51:56;;;;;;;;;;;2.70;99.90;;;;;;4934982;29;19919;-92
2024/01/05 02:54:22;;;;;;;;;;;2.70;99.90;;;;;;4915904;29;19918;-92
2024/01/05 02:56:49;;;;;;;;;;;2.60;99.90;;;;;;4920314;29;19922;-92
2024/01/05 02:59:15;;;;;;;;;;;2.60;99.90;;;;;;4930137;29;19919;-93
2024/01/05 03:01:40;;;;;;;;;;;2.50;99.90;;;;;;4919149;29;20402;-92
2024/01/05 03:04:07;;;;;;;;;;;2.50;99.90;;;;;;4920436;29;19923;-93
2024/01/05 03:06:33;;;;;;;;;;;2.50;99.90;;;;;;4917615;29;20017;-92
2024/01/05 03:08:59;;;;;;;;;;;2.50;99.90;;;;;;4934444;29;20385;-92
2024/01/05 03:11:25;;;;;;;;;;;2.50;99.90;;;;;;4923689;29;19915;-92
2024/01/05 03:13:50;;;;;;;;;;;2.40;99.90;;;;;;4933768;29;19922;-92
2024/01/05 03:16:16;;;;;;;;;;;2.50;99.90;;;;;;4922131;29;19915;-91
2024/01/05 03:18:42;;;;;;;;;;;2.50;99.90;;;;;;4927152;29;19918;-92
2024/01/05 03:21:08;;;;;;;;;;;2.40;99.90;;;;;;4936420;29;19915;-92
2024/01/05 03:23:34;;;;;;;;;;;2.40;99.90;;;;;;4935088;29;20314;-93
2024/01/05 03:26:00;;;;;;;;;;;2.50;99.90;;;;;;4918122;29;19915;-92
2024/01/05 03:28:26;;;;;;;;;;;2.50;99.90;;;;;;4915841;29;19922;-92
2024/01/05 03:30:52;;;;;;;;;;;2.50;99.90;;;;;;4935796;29;19915;-92
2024/01/05 03:33:21;;;;;;;;;;;2.50;99.90;;;;;;4929911;29;19915;-92
2024/01/05 03:35:46;;;;;;;;;;;2.60;99.90;;;;;;4919063;29;20003;-92
2024/01/05 03:38:12;;;;;;;;;;;2.70;99.90;;;;;;4937851;29;20335;-91
2024/01/05 03:40:38;;;;;;;;;;;2.70;99.90;;;;;;4933566;29;19922;-93
2024/01/05 03:43:03;;;;;;;;;;;2.70;99.90;;;;;;4936039;29;19990;-92
2024/01/05 03:45:29;;;;;;;;;;;2.70;99.90;;;;;;4923628;29;19919;-92
2024/01/05 03:47:55;;;;;;;;;;;2.70;99.90;;;;;;4946498;29;19962;-93
2024/01/05 03:50:20;;;;;;;;;;;2.70;99.90;;;;;;4941277;29;19926;-92
2024/01/05 03:52:46;;;;;;;;;;;2.70;99.90;;;;;;4928878;29;19954;-92
2024/01/05 03:55:12;;;;;;;;;;;2.80;99.90;;;;;;4925953;29;19982;-92
2024/01/05 03:57:37;;;;;;;;;;;2.80;99.90;;;;;;4909463;29;19915;-92
2024/01/05 04:00:03;;;;;;;;;;;2.80;99.90;;;;;;4909003;29;19961;-92
2024/01/05 04:02:30;;;;;;;;;;;2.80;99.90;;;;;;4924232;29;19914;-92
2024/01/05 04:04:56;;;;;;;;;;;2.80;99.90;;;;;;4907845;29;19919;-93
2024/01/05 04:07:22;;;;;;;;;;;2.80;99.90;;;;;;4925988;29;19938;-92
2024/01/05 04:09:49;;;;;;;;;;;2.80;99.90;;;;;;4910356;29;19926;-94
2024/01/05 04:12:14;;;;;;;;;;;2.90;99.90;;;;;;4909245;29;20001;-93
2024/01/05 04:14:40;;;;;;;;;;;2.90;99.90;;;;;;4924420;29;19957;-92
2024/01/05 04:17:06;;;;;;;;;;;2.90;99.90;;;;;;4924463;29;19970;-92
2024/01/05 04:19:31;;;;;;;;;;;3.00;99.90;;;;;;4909038;29;19915;-90
2024/01/05 04:21:57;;;;;;;;;;;3.00;99.90;;;;;;4911099;29;19915;-93
2024/01/05 04:24:22;;;;;;;;;;;3.10;99.90;;;;;;4923682;29;19937;-92
2024/01/05 04:26:48;;;;;;;;;;;3.10;99.90;;;;;;4909389;29;19922;-93
2024/01/05 04:29:14;;;;;;;;;;;3.00;99.90;;;;;;4923203;29;19926;-92
2024/01/05 04:31:40;;;;;;;;;;;3.00;99.90;;;;;;4908276;29;19915;-92
2024/01/05 04:34:05;;;;;;;;;;;3.00;99.90;;;;;;4908539;29;19919;-93
2024/01/05 04:36:31;;;;;;;;;;;3.00;99.90;;;;;;4912482;29;19922;-93
2024/01/05 04:38:57;;;;;;;;;;;3.10;99.90;;;;;;4905366;29;19911;-91
2024/01/05 04:41:23;;;;;;;;;;;3.10;99.90;;;;;;4924060;29;19919;-92
2024/01/05 04:43:50;;;;;;;;;;;3.20;99.90;;;;;;4908530;29;19921;-93
2024/01/05 04:49:44;;;;;;;;;;;3.30;99.90;;;;;;4939947;29;20010;-93
2024/01/05 04:52:10;;;;;;;;;;;3.40;99.90;;;;;;4911858;29;20033;-92
2024/01/05 04:54:36;;;;;;;;;;;3.40;99.90;;;;;;4907383;29;19919;-92
2024/01/05 04:57:01;;;;;;;;;;;3.40;99.90;;;;;;4908527;29;19915;-93
2024/01/05 04:59:27;;;;;;;;;;;3.40;99.90;;;;;;4914308;29;19954;-92
2024/01/05 05:01:53;;;;;;;;;;;3.40;99.90;;;;;;4916891;29;19905;-92
2024/01/05 05:04:18;;;;;;;;;;;3.40;99.90;;;;;;4924147;29;19914;-92
2024/01/05 05:06:44;;;;;;;;;;;3.40;99.90;;;;;;4907132;29;19915;-92
2024/01/05 05:09:10;;;;;;;;;;;3.40;99.90;;;;;;4925837;29;19915;-92
2024/01/05 05:11:36;;;;;;;;;;;3.40;99.90;;;;;;4907351;29;20011;-92
2024/01/05 05:17:30;;;;;;;;;;;3.40;99.90;;;;;;4940066;29;19926;-92
2024/01/05 05:19:55;;;;;;;;;;;3.40;99.90;;;;;;4906570;29;19919;-92
2024/01/05 05:22:22;;;;;;;;;;;3.40;99.90;;;;;;4928387;29;20014;-91
2024/01/05 05:24:50;;;;;;;;;;;3.30;99.90;;;;;;4906933;29;19915;-92
2024/01/05 05:27:16;;;;;;;;;;;3.30;99.90;;;;;;4922253;29;19926;-91
2024/01/05 05:29:42;;;;;;;;;;;3.30;99.90;;;;;;4906300;29;19919;-91
2024/01/05 05:32:07;;;;;;;;;;;3.30;99.90;;;;;;4919496;29;19915;-91
2024/01/05 05:34:33;;;;;;;;;;;3.30;99.90;;;;;;4910439;29;19914;-92
2024/01/05 05:36:58;;;;;;;;;;;3.20;99.90;;;;;;4906616;29;19942;-91
2024/01/05 05:39:25;;;;;;;;;;;3.20;99.90;;;;;;4906556;29;19933;-92
2024/01/05 05:41:50;;;;;;;;;;;3.20;99.90;;;;;;4906531;29;20418;-91
2024/01/05 05:44:16;;;;;;;;;;;3.10;99.90;;;;;;4907183;29;19957;-92
2024/01/05 05:46:42;;;;;;;;;;;3.10;99.90;;;;;;4907217;29;20277;-92
2024/01/05 05:49:07;;;;;;;;;;;3.00;99.90;;;;;;4906341;29;20355;-92
2024/01/05 05:51:33;;;;;;;;;;;3.10;99.90;;;;;;4907077;29;19993;-92
2024/01/05 05:53:58;;;;;;;;;;;3.10;99.90;;;;;;4905797;29;19967;-92
2024/01/05 05:56:24;;;;;;;;;;;3.10;99.90;;;;;;4921442;29;20009;-92
2024/01/05 05:58:50;;;;;;;;;;;3.10;99.90;;;;;;4906711;29;19930;-92
2024/01/05 06:01:16;;;;;;;;;;;3.00;99.90;;;;;;4922954;29;20275;-92
2024/01/05 06:03:42;;;;;;;;;;;3.10;99.90;;;;;;4910912;29;19915;-92
2024/01/05 06:06:18;;;;;;;;;;;3.10;99.90;;;;;;4925854;29;19895;-92
2024/01/05 06:08:44;;;;;;;;;;;3.10;99.90;;;;;;4911307;29;20009;-92
2024/01/05 06:11:11;;;;;;;;;;;3.10;99.90;;;;;;4938455;29;19946;-92
2024/01/05 06:13:37;;;;;;;;;;;3.00;99.90;;;;;;4913015;29;19919;-92
2024/01/05 06:16:03;;;;;;;;;;;3.20;99.90;;;;;;4910908;29;19915;-93
2024/01/05 06:18:29;;;;;;;;;;;3.10;99.90;;;;;;4910581;29;20367;-92
2024/01/05 06:20:55;;;;;;;;;;;3.20;99.90;;;;;;4914504;29;19950;-93
2024/01/05 06:23:21;;;;;;;;;;;3.20;99.90;;;;;;4910015;29;19911;-92
2024/01/05 06:25:46;;;;;;;;;;;3.20;99.90;;;;;;4914388;29;19915;-93
2024/01/05 06:28:12;;;;;;;;;;;3.30;99.90;;;;;;4910594;29;20009;-91
2024/01/05 06:30:38;;;;;;;;;;;3.30;99.90;;;;;;4910625;29;19915;-93
2024/01/05 06:33:03;;;;;;;;;;;3.30;99.90;;;;;;4910173;29;19974;-92
2024/01/05 06:35:29;;;;;;;;;;;3.30;99.90;;;;;;4915671;29;19959;-92
2024/01/05 06:37:55;;;;;;;;;;;3.30;99.90;;;;;;4920571;29;19958;-92
2024/01/05 06:40:22;;;;;;;;;;;3.30;99.90;;;;;;4919825;29;19911;-93
2024/01/05 06:42:47;;;;;;;;;;;3.40;99.90;;;;;;4909394;29;19915;-92
2024/01/05 06:45:13;;;;;;;;;;;3.40;99.90;;;;;;4925008;29;20375;-93
2024/01/05 06:47:39;;;;;;;;;;;3.40;99.90;;;;;;4911184;29;19911;-91
2024/01/05 06:50:05;;;;;;;;;;;3.50;99.90;;;;;;4906212;29;19919;-92
2024/01/05 06:52:31;;;;;;;;;;;3.50;99.90;;;;;;4901524;29;19915;-91
2024/01/05 06:54:56;;;;;;;;;;;3.60;99.90;;;;;;4922377;29;19922;-91
2024/01/05 06:57:22;;;;;;;;;;;3.60;99.90;;;;;;4908417;29;19915;-92
2024/01/05 06:59:47;;;;;;;;;;;3.70;99.90;;;;;;4923273;29;20359;-92
2024/01/05 07:02:13;;;;;;;;;;;3.70;99.90;;;;;;4911514;29;19922;-93
2024/01/05 07:04:40;;;;;;;;;;;3.70;99.90;;;;;;4925445;29;19915;-92
2024/01/05 07:07:05;;;;;;;;;;;3.70;99.90;;;;;;4925058;29;19919;-92
2024/01/05 07:09:31;;;;;;;;;;;3.70;99.90;;;;;;4908308;29;19925;-92
2024/01/05 07:11:57;;;;;;;;;;;3.70;99.90;;;;;;4911245;29;19942;-91
2024/01/05 07:14:23;;;;;;;;;;;3.80;99.90;;;;;;4931013;29;19922;-93
2024/01/05 07:16:49;;;;;;;;;;;3.90;99.90;;;;;;4912397;29;19915;-92
2024/01/05 07:19:15;;;;;;;;;;;3.90;99.90;;;;;;4924573;29;19918;-90
2024/01/05 07:21:41;;;;;;;;;;;3.90;99.90;;;;;;4902218;29;19915;-88
2024/01/05 07:24:07;;;;;;;;;;;3.90;99.90;;;;;;4921678;29;20339;-89
2024/01/05 07:26:32;;;;;;;;;;;4.00;99.90;;;;;;4922728;29;20283;-89
2024/01/05 07:28:58;;;;;;;;;;;4.00;99.90;;;;;;4923712;29;19926;-89
2024/01/05 07:31:24;;;;;;;;;;;4.00;99.90;;;;;;4916674;29;19919;-89
2024/01/05 07:33:50;;;;;;;;;;;4.00;99.90;;;;;;4912779;29;19926;-89
2024/01/05 07:36:16;;;;;;;;;;;4.00;99.90;;;;;;4909066;29;19941;-90
2024/01/05 07:38:42;;;;;;;;;;;4.00;99.90;;;;;;4920201;29;20410;-90
2024/01/05 07:41:14;;;;;;;;;;;3.90;99.90;;;;;;4919081;29;19915;-90
2024/01/05 07:43:40;;;;;;;;;;;3.90;99.90;;;;;;4934893;29;19922;-90
2024/01/05 07:46:05;;;;;;;;;;;4.00;99.90;;;;;;4910857;29;19918;-90
2024/01/05 07:48:31;;;;;;;;;;;4.00;99.90;;;;;;4922329;29;19922;-90
2024/01/05 07:50:57;;;;;;;;;;;4.00;99.90;;;;;;4906275;29;19918;-90
2024/01/05 07:53:23;;;;;;;;;;;4.10;99.90;;;;;;4920091;29;20009;-90
2024/01/05 07:55:49;;;;;;;;;;;4.00;99.90;;;;;;4908526;29;20411;-89
2024/01/05 07:58:14;;;;;;;;;;;4.00;99.90;;;;;;4907046;29;19917;-90
2024/01/05 08:00:40;;;;;;;;;;;4.00;99.90;;;;;;4909132;29;19951;-91
2024/01/05 08:03:06;;;;;;;;;;;4.10;99.90;;;;;;4907340;29;19925;-89
2024/01/05 08:05:32;;;;;;;;;;;4.10;99.90;;;;;;4906475;29;20005;-89
2024/01/05 08:07:57;;;;;;;;;;;4.10;99.90;;;;;;4922720;29;19910;-89
2024/01/05 08:10:23;;;;;;;;;;;4.20;99.90;;;;;;4905731;29;19919;-89
2024/01/05 08:12:48;;;;;;;;;;;4.20;99.90;;;;;;4906777;29;19961;-90
2024/01/05 08:15:14;;;;;;;;;;;4.20;99.90;;;;;;4905558;29;19919;-90
2024/01/05 08:17:40;;;;;;;;;;;4.20;99.90;;;;;;4921567;29;20346;-89
2024/01/05 08:20:06;;;;;;;;;;;4.30;99.90;;;;;;4926944;28;20294;-90
2024/01/05 08:22:32;;;;;;;;;;;4.20;99.90;;;;;;4944095;29;20026;-90
2024/01/05 08:24:58;;;;;;;;;;;4.20;99.90;;;;;;4906180;29;19922;-89
2024/01/05 08:27:23;;;;;;;;;;;4.10;99.90;;;;;;4923001;29;19969;-90
2024/01/05 08:29:49;;;;;;;;;;;4.10;99.90;;;;;;4929293;29;20290;-89
2024/01/05 08:32:15;;;;;;;;;;;4.00;99.90;;;;;;4907236;29;19914;-88
2024/01/05 08:34:40;;;;;;;;;;;4.20;99.90;;;;;;4921440;29;20260;-90
2024/01/05 08:37:06;;;;;;;;;;;4.30;99.90;;;;;;4903282;29;19914;-89
2024/01/05 08:39:32;;;;;;;;;;;4.40;99.90;;;;;;4926852;29;19942;-89
2024/01/05 08:41:58;;;;;;;;;;;4.50;99.90;;;;;;4904622;29;19958;-89
2024/01/05 08:44:24;;;;;;;;;;;4.50;99.90;;;;;;4910084;29;19915;-90
2024/01/05 08:46:49;;;;;;;;;;;4.60;99.90;;;;;;4910448;29;20375;-90
2024/01/05 08:49:15;;;;;;;;;;;4.60;99.90;;;;;;4929080;29;19948;-89
2024/01/05 08:51:42;;;;;;;;;;;4.60;99.90;;;;;;4905362;29;19915;-89
2024/01/05 08:54:08;;;;;;;;;;;4.60;99.90;;;;;;4945027;29;19914;-89
2024/01/05 08:56:33;;;;;;;;;;;4.60;99.90;;;;;;4923467;29;20572;-89
2024/01/05 08:58:59;;;;;;;;;;;4.70;99.90;;;;;;4905308;29;20360;-90
2024/01/05 09:01:26;;;;;;;;;;;4.70;99.90;;;;;;4908774;29;20371;-89
2024/01/05 09:03:52;;;;;;;;;;;4.80;99.90;;;;;;4926378;29;19914;-89
2024/01/05 09:06:18;;;;;;;;;;;4.90;99.90;;;;;;4903376;29;19925;-90
2024/01/05 09:08:43;;;;;;;;;;;5.00;99.90;;;;;;4918457;29;20331;-89
2024/01/05 09:11:09;;;;;;;;;;;5.10;99.90;;;;;;4905180;29;19910;-89
2024/01/05 09:13:35;;;;;;;;;;;5.30;99.90;;;;;;4931291;29;19919;-89
2024/01/05 09:16:00;;;;;;;;;;;5.40;99.90;;;;;;4919765;29;19918;-89
2024/01/05 09:18:28;;;;;;;;;;;5.60;99.90;;;;;;4905348;29;19923;-89
2024/01/05 09:20:53;;;;;;;;;;;5.60;99.90;;;;;;4935546;29;19925;-90
2024/01/05 09:23:19;;;;;;;;;;;5.60;99.90;;;;;;4902634;29;20576;-89
2024/01/05 09:25:44;;;;;;;;;;;5.60;99.90;;;;;;4921189;29;19918;-89
2024/01/05 09:28:10;;;;;;;;;;;5.60;99.90;;;;;;4930184;29;19915;-90
2024/01/05 09:30:36;;;;;;;;;;;5.70;99.90;;;;;;4908650;29;19969;-90
2024/01/05 09:33:02;;;;;;;;;;;5.50;99.90;;;;;;4920044;29;20286;-89
2024/01/05 09:35:28;;;;;;;;;;;5.50;99.90;;;;;;4903865;29;19914;-89
2024/01/05 09:37:53;;;;;;;;;;;5.60;99.90;;;;;;4936254;29;19915;-89
2024/01/05 09:40:20;;;;;;;;;;;5.70;99.90;;;;;;4919173;29;19914;-89
2024/01/05 09:42:53;;;;;;;;;;;5.60;99.90;;;;;;4918842;29;19927;-89
2024/01/05 09:45:22;;;;;;;;;;;5.80;99.90;;;;;;4907204;29;19919;-90
2024/01/05 09:47:48;;;;;;;;;;;5.90;99.90;;;;;;4919940;29;19921;-89
2024/01/05 09:50:16;;;;;;;;;;;6.00;99.90;;;;;;4919779;29;20915;-89
2024/01/05 09:52:44;;;;;;;;;;;6.10;99.90;;;;;;4936436;29;20017;-89
2024/01/05 09:55:13;;;;;;;;;;;6.50;99.90;;;;;;4905429;29;19966;-88
2024/01/05 09:58:16;;;;;;;;;;;6.90;99.90;;;;;;4918670;29;20014;-88
2024/01/05 10:00:44;;;;;;;;;;;7.10;99.90;;;;;;4922662;29;19915;-89
2024/01/05 10:03:11;;;;;;;;;;;7.10;99.90;;;;;;4941579;29;19925;-88
2024/01/05 10:05:36;;;;;;;;;;;7.00;99.90;;;;;;4914754;29;19963;-89
2024/01/05 10:08:04;;;;;;;;;;;7.00;99.90;;;;;;4919544;29;19923;-88
2024/01/05 10:11:06;;;;;;;;;;;6.90;99.90;;;;;;4913383;29;20101;-89
2024/01/05 10:13:32;;;;;;;;;;;7.00;99.90;;;;;;4866380;29;19916;-88
2024/01/05 10:16:02;;;;;;;;;;;7.00;99.90;;;;;;4884800;29;19940;-89
2024/01/05 10:18:30;;;;;;;;;;;7.00;99.90;;;;;;4914942;29;19926;-88
2024/01/05 10:20:57;;;;;;;;;;;7.30;99.90;;;;;;4920055;29;19978;-89
2024/01/05 10:23:23;;;;;;;;;;;7.70;99.90;;;;;;4919596;29;19962;-89
2024/01/05 10:25:51;;;;;;;;;;;8.00;99.90;;;;;;4919436;29;19918;-88
2024/01/05 10:28:23;;;;;;;;;;;8.10;99.90;;;;;;4925886;29;19919;-89
2024/01/05 10:30:48;;;;;;;;;;;8.40;99.90;;;;;;4918789;29;19923;-88
2024/01/05 10:33:16;;;;;;;;;;;8.30;99.90;;;;;;4903669;29;19961;-89
2024/01/05 10:35:42;;;;;;;;;;;8.10;99.90;;;;;;4937607;29;19915;-90
2024/01/05 10:38:08;;;;;;;;;;;7.70;99.90;;;;;;4919027;29;19921;-87
2024/01/05 10:40:34;;;;;;;;;;;7.60;99.90;;;;;;4903975;29;20358;-89
2024/01/05 10:43:07;;;;;;;;;;;7.40;99.90;;;;;;4903441;29;20005;-89
2024/01/05 10:45:33;;;;;;;;;;;7.10;99.90;;;;;;4898200;29;19915;-88
2024/01/05 10:48:00;;;;;;;;;;;6.80;99.90;;;;;;4918546;29;20260;-88
2024/01/05 10:50:25;;;;;;;;;;;6.70;99.90;;;;;;4918515;29;20319;-89
2024/01/05 10:52:52;;;;;;;;;;;6.70;99.90;;;;;;4930232;29;19973;-89
2024/01/05 10:55:19;;;;;;;;;;;6.70;99.90;;;;;;4908596;29;19915;-88
2024/01/05 10:57:45;;;;;;;;;;;6.80;99.90;;;;;;4903547;29;19983;-89
2024/01/05 11:00:13;;;;;;;;;;;6.70;99.90;;;;;;4907942;29;19921;-89
2024/01/05 11:02:40;;;;;;;;;;;6.70;99.90;;;;;;4911132;29;20422;-89
2024/01/05 11:05:09;;;;;;;;;;;6.80;99.90;;;;;;4906914;29;19918;-89
2024/01/05 11:07:36;;;;;;;;;;;6.70;99.90;;;;;;4906378;29;19989;-89
2024/01/05 11:10:13;;;;;;;;;;;6.80;99.90;;;;;;4904950;29;19926;-88
2024/01/05 11:12:45;;;;;;;;;;;6.90;99.90;;;;;;4932656;29;19918;-88
2024/01/05 11:19:08;;;;;;;;;;;6.90;99.90;;;;;;4936250;29;20022;-89
2024/01/05 11:21:36;;;;;;;;;;;6.90;99.90;;;;;;4937678;29;19925;-88
2024/01/05 11:24:02;;;;;;;;;;;6.90;99.90;;;;;;4922789;29;20586;-88
2024/01/05 11:26:35;;;;;;;;;;;6.80;99.90;;;;;;4921802;29;19914;-89
2024/01/05 11:29:01;;;;;;;;;;;6.90;99.90;;;;;;4907862;29;19950;-88
2024/01/05 11:31:47;;;;;;;;;;;6.80;99.90;;;;;;4911672;29;19915;-89
2024/01/05 11:34:28;;;;;;;;;;;6.90;99.90;;;;;;4912488;29;20323;-88
2024/01/05 11:37:18;;;;;;;;;;;6.90;99.90;;;;;;4935651;28;19930;-89
2024/01/05 11:39:45;;;;;;;;;;;6.90;99.90;;;;;;4908368;29;19918;-89
2024/01/05 11:42:29;;;;;;;;;;;6.90;99.90;;;;;;4905412;29;19915;-88
2024/01/05 11:44:56;;;;;;;;;;;6.90;99.90;;;;;;4919438;29;19986;-89
2024/01/05 11:47:38;;;;;;;;;;;6.80;99.90;;;;;;4921241;29;19922;-88
2024/01/05 11:50:23;;;;;;;;;;;6.90;99.90;;;;;;4920945;29;19919;-88
2024/01/05 11:53:08;;;;;;;;;;;7.00;99.90;;;;;;4916577;29;19954;-88
2024/01/05 11:55:39;;;;;;;;;;;6.90;99.90;;;;;;4921326;29;19915;-88
2024/01/05 11:58:05;;;;;;;;;;;6.90;99.90;;;;;;4921462;29;20399;-88
2024/01/05 12:00:31;;;;;;;;;;;6.90;99.90;;;;;;4905026;29;19915;-89
2024/01/05 12:03:03;;;;;;;;;;;6.80;99.90;;;;;;4920975;29;19922;-89
2024/01/05 12:05:28;;;;;;;;;;;6.70;99.90;;;;;;4904368;29;19921;-89
2024/01/05 12:07:57;;;;;;;;;;;6.80;99.90;;;;;;4935573;29;19915;-88
2024/01/05 12:10:23;;;;;;;;;;;6.80;99.90;;;;;;4917058;29;19919;-89
2024/01/05 12:12:53;;;;;;;;;;;6.90;99.90;;;;;;4948462;29;19914;-89
2024/01/05 12:15:20;;;;;;;;;;;6.90;99.90;;;;;;4930597;29;19919;-89
2024/01/05 12:17:47;;;;;;;;;;;6.80;99.90;;;;;;4901534;29;19926;-89
2024/01/05 12:20:13;;;;;;;;;;;6.70;99.90;;;;;;4919365;29;19919;-88
2024/01/05 12:22:39;;;;;;;;;;;6.70;99.90;;;;;;4934883;29;19919;-88
2024/01/05 12:28:37;;;;;;;;;;;6.70;99.90;;;;;;4943365;28;19942;-88
2024/01/05 12:31:04;;;;;;;;;;;6.70;99.90;;;;;;4908512;29;19914;-86
2024/01/05 12:33:30;;;;;;;;;;;6.80;99.90;;;;;;4933745;29;20732;-89
2024/01/05 12:35:56;;;;;;;;;;;6.80;99.90;;;;;;4928590;29;19926;-88
2024/01/05 12:38:25;;;;;;;;;;;6.90;99.90;;;;;;4917478;29;19915;-88
2024/01/05 12:41:04;;;;;;;;;;;6.90;99.90;;;;;;4914788;29;19915;-88
2024/01/05 12:43:30;;;;;;;;;;;6.90;99.90;;;;;;4922294;29;19938;-88
2024/01/05 12:45:56;;;;;;;;;;;6.90;99.90;;;;;;4904117;29;19914;-88
2024/01/05 12:48:25;;;;;;;;;;;7.00;99.90;;;;;;4917950;29;19922;-88
2024/01/05 12:51:01;;;;;;;;;;;6.90;99.90;;;;;;4904208;29;19918;-87
2024/01/05 12:53:27;;;;;;;;;;;6.90;99.90;;;;;;4909483;29;20286;-88
2024/01/05 12:55:53;;;;;;;;;;;6.90;99.90;;;;;;4913272;29;19915;-89
2024/01/05 12:58:18;;;;;;;;;;;6.80;99.90;;;;;;4903144;29;20289;-89
2024/01/05 13:01:20;;;;;;;;;;;6.80;99.90;;;;;;4926372;29;20375;-89
2024/01/05 13:03:53;;;;;;;;;;;6.90;99.90;;;;;;4920670;29;19998;-88
2024/01/05 13:06:19;;;;;;;;;;;6.90;99.90;;;;;;4927181;29;19915;-88
2024/01/05 13:08:45;;;;;;;;;;;6.90;99.90;;;;;;4912554;29;19912;-88
2024/01/05 13:11:13;;;;;;;;;;;7.00;99.90;;;;;;4942557;28;19961;-89
2024/01/05 13:13:38;;;;;;;;;;;7.00;99.90;;;;;;4903391;29;19972;-88
2024/01/05 13:16:04;;;;;;;;;;;7.00;99.90;;;;;;4920786;29;20639;-89
2024/01/05 13:18:36;;;;;;;;;;;7.00;99.90;;;;;;4910867;29;19925;-88
2024/01/05 13:21:02;;;;;;;;;;;7.00;99.90;;;;;;4929043;29;19926;-88
2024/01/05 13:23:29;;;;;;;;;;;7.20;99.90;;;;;;4934833;29;20050;-88
2024/01/05 13:25:55;;;;;;;;;;;7.20;99.90;;;;;;4903378;29;19946;-88
2024/01/05 13:28:20;;;;;;;;;;;7.20;99.90;;;;;;4919479;29;20459;-88
2024/01/05 13:30:48;;;;;;;;;;;7.10;99.90;;;;;;4902754;29;22202;-88
2024/01/05 13:33:13;;;;;;;;;;;7.10;99.90;;;;;;4919277;29;19915;-87
2024/01/05 13:35:39;;;;;;;;;;;7.00;99.90;;;;;;4904582;29;20393;-88
2024/01/05 13:38:05;;;;;;;;;;;6.90;99.90;;;;;;4919998;29;20519;-89
2024/01/05 13:40:31;;;;;;;;;;;6.80;99.90;;;;;;4904187;29;20283;-88
2024/01/05 13:42:56;;;;;;;;;;;6.80;99.90;;;;;;4915681;29;19970;-88
2024/01/05 13:45:22;;;;;;;;;;;6.80;99.90;;;;;;4923109;29;19915;-88
2024/01/05 13:47:47;;;;;;;;;;;6.80;99.90;;;;;;4918800;29;20240;-88
2024/01/05 13:50:13;;;;;;;;;;;6.80;99.90;;;;;;4908417;29;20386;-88
2024/01/05 13:52:40;;;;;;;;;;;6.70;99.90;;;;;;4902312;29;20616;-88
2024/01/05 13:55:08;;;;;;;;;;;6.80;99.90;;;;;;4920032;29;20363;-87
2024/01/05 13:57:34;;;;;;;;;;;6.80;99.90;;;;;;4917662;29;19919;-87
2024/01/05 13:59:59;;;;;;;;;;;6.70;99.90;;;;;;4927317;29;19925;-88
2024/01/05 14:02:25;;;;;;;;;;;6.70;99.90;;;;;;4903407;29;19923;-88
2024/01/05 14:04:51;;;;;;;;;;;6.70;99.90;;;;;;4924270;29;19919;-88
2024/01/05 14:07:17;;;;;;;;;;;6.70;99.90;;;;;;4902310;29;19915;-87
2024/01/05 14:09:42;;;;;;;;;;;6.70;99.90;;;;;;4909801;29;19929;-88
2024/01/05 14:12:08;;;;;;;;;;;6.70;99.90;;;;;;4902360;29;19914;-88
2024/01/05 14:14:34;;;;;;;;;;;6.60;99.90;;;;;;4928122;29;20415;-89
2024/01/05 14:17:00;;;;;;;;;;;6.60;99.90;;;;;;4932996;29;19919;-89
2024/01/05 14:19:25;;;;;;;;;;;6.50;99.90;;;;;;4897887;29;20538;-88
2024/01/05 14:21:51;;;;;;;;;;;6.50;99.90;;;;;;4931236;29;20014;-88
2024/01/05 14:24:17;;;;;;;;;;;6.50;99.90;;;;;;4905651;29;20350;-88
2024/01/05 14:26:49;;;;;;;;;;;6.40;99.90;;;;;;4919742;28;19914;-88
2024/01/05 14:29:18;;;;;;;;;;;6.40;99.90;;;;;;4927049;29;19930;-88
2024/01/05 14:31:44;;;;;;;;;;;6.30;99.90;;;;;;4936687;29;19911;-88
2024/01/05 14:34:10;;;;;;;;;;;6.30;99.90;;;;;;4925426;29;19918;-89
2024/01/05 14:36:35;;;;;;;;;;;6.30;99.90;;;;;;4907706;29;19981;-88
2024/01/05 14:39:01;;;;;;;;;;;6.30;99.90;;;;;;4910609;29;19983;-89
2024/01/05 14:41:27;;;;;;;;;;;6.20;99.90;;;;;;4926073;29;19961;-89
2024/01/05 14:43:53;;;;;;;;;;;6.20;99.90;;;;;;4921866;29;19930;-88
2024/01/05 14:46:18;;;;;;;;;;;6.20;99.90;;;;;;4922917;29;19914;-89